sensor_id;sensor_type;location;lat;lon;timestamp;temperature;humidity
42833;DHT22;64089;51.478;5.692;2022-10-16T00:00:32;13.00;99.90
42833;DHT22;64089;51.478;5.692;2022-10-16T00:02:58;13.00;99.90
42833;DHT22;64089;51.478;5.692;2022-10-16T00:05:24;13.00;99.90
42833;DHT22;64089;51.478;5.692;2022-10-16T00:07:49;13.00;99.90
42833;DHT22;64089;51.478;5.692;2022-10-16T00:10:15;13.00;99.90
42833;DHT22;64089;51.478;5.692;2022-10-16T00:12:40;13.00;99.90
42833;DHT22;64089;51.478;5.692;2022-10-16T00:15:06;13.00;99.90
42833;DHT22;64089;51.478;5.692;2022-10-16T00:17:32;13.00;99.90
42833;DHT22;64089;51.478;5.692;2022-10-16T00:19:58;13.10;99.90
42833;DHT22;64089;51.478;5.692;2022-10-16T00:22:24;13.00;99.90
42833;DHT22;64089;51.478;5.692;2022-10-16T00:24:49;13.00;99.90
42833;DHT22;64089;51.478;5.692;2022-10-16T00:27:15;13.00;99.90
42833;DHT22;64089;51.478;5.692;2022-10-16T00:29:42;12.90;99.90
42833;DHT22;64089;51.478;5.692;2022-10-16T00:32:07;13.00;99.90
42833;DHT22;64089;51.478;5.692;2022-10-16T00:34:33;12.90;99.90
42833;DHT22;64089;51.478;5.692;2022-10-16T00:36:59;12.80;99.90
42833;DHT22;64089;51.478;5.692;2022-10-16T00:39:24;12.80;99.90
42833;DHT22;64089;51.478;5.692;2022-10-16T00:41:50;12.80;99.90
42833;DHT22;64089;51.478;5.692;2022-10-16T00:47:09;12.70;99.90
42833;DHT22;64089;51.478;5.692;2022-10-16T00:49:35;12.60;99.90
42833;DHT22;64089;51.478;5.692;2022-10-16T00:52:01;12.60;99.90
42833;DHT22;64089;51.478;5.692;2022-10-16T00:54:30;12.60;99.90
42833;DHT22;64089;51.478;5.692;2022-10-16T00:56:59;12.60;99.90
42833;DHT22;64089;51.478;5.692;2022-10-16T00:59:28;12.60;99.90
42833;DHT22;64089;51.478;5.692;2022-10-16T01:01:55;12.60;99.90
42833;DHT22;64089;51.478;5.692;2022-10-16T01:04:22;12.60;99.90
42833;DHT22;64089;51.478;5.692;2022-10-16T01:13:01;12.40;99.90
42833;DHT22;64089;51.478;5.692;2022-10-16T01:15:51;12.50;99.90
42833;DHT22;64089;51.478;5.692;2022-10-16T01:19:08;12.40;99.90
42833;DHT22;64089;51.478;5.692;2022-10-16T01:21:33;12.40;99.90
42833;DHT22;64089;51.478;5.692;2022-10-16T01:27:18;12.40;99.90
42833;DHT22;64089;51.478;5.692;2022-10-16T01:32:40;12.30;99.90
42833;DHT22;64089;51.478;5.692;2022-10-16T01:37:49;12.30;99.90
42833;DHT22;64089;51.478;5.692;2022-10-16T01:40:17;12.30;99.90
42833;DHT22;64089;51.478;5.692;2022-10-16T01:42:50;12.30;99.90
42833;DHT22;64089;51.478;5.692;2022-10-16T01:45:19;12.20;99.90
42833;DHT22;64089;51.478;5.692;2022-10-16T01:47:46;12.30;99.90
42833;DHT22;64089;51.478;5.692;2022-10-16T01:50:14;12.30;99.90
42833;DHT22;64089;51.478;5.692;2022-10-16T01:52:46;12.30;99.90
42833;DHT22;64089;51.478;5.692;2022-10-16T01:55:16;12.30;99.90
42833;DHT22;64089;51.478;5.692;2022-10-16T01:57:45;12.30;99.90
42833;DHT22;64089;51.478;5.692;2022-10-16T02:00:13;12.40;99.90
42833;DHT22;64089;51.478;5.692;2022-10-16T02:02:41;12.40;99.90
42833;DHT22;64089;51.478;5.692;2022-10-16T02:05:10;12.40;99.90
42833;DHT22;64089;51.478;5.692;2022-10-16T02:07:40;12.50;99.90
42833;DHT22;64089;51.478;5.692;2022-10-16T02:10:07;12.50;99.90
42833;DHT22;64089;51.478;5.692;2022-10-16T02:12:34;12.50;99.90
42833;DHT22;64089;51.478;5.692;2022-10-16T02:15:01;12.60;99.90
42833;DHT22;64089;51.478;5.692;2022-10-16T02:17:28;12.60;99.90
42833;DHT22;64089;51.478;5.692;2022-10-16T02:19:55;12.60;99.90
42833;DHT22;64089;51.478;5.692;2022-10-16T02:22:35;12.60;99.90
42833;DHT22;64089;51.478;5.692;2022-10-16T02:25:31;12.60;99.90
42833;DHT22;64089;51.478;5.692;2022-10-16T02:28:15;12.50;99.90
42833;DHT22;64089;51.478;5.692;2022-10-16T02:30:53;12.50;99.90
42833;DHT22;64089;51.478;5.692;2022-10-16T02:33:22;12.40;99.90
42833;DHT22;64089;51.478;5.692;2022-10-16T02:35:49;12.40;99.90
42833;DHT22;64089;51.478;5.692;2022-10-16T02:38:16;12.30;99.90
42833;DHT22;64089;51.478;5.692;2022-10-16T02:40:42;12.30;99.90
42833;DHT22;64089;51.478;5.692;2022-10-16T02:43:08;12.30;99.90
42833;DHT22;64089;51.478;5.692;2022-10-16T02:45:35;12.30;99.90
42833;DHT22;64089;51.478;5.692;2022-10-16T02:48:00;12.30;99.90
42833;DHT22;64089;51.478;5.692;2022-10-16T02:50:26;12.30;99.90
42833;DHT22;64089;51.478;5.692;2022-10-16T02:52:51;12.30;99.90
42833;DHT22;64089;51.478;5.692;2022-10-16T02:55:17;12.30;99.90
42833;DHT22;64089;51.478;5.692;2022-10-16T02:57:43;12.20;99.90
42833;DHT22;64089;51.478;5.692;2022-10-16T03:00:10;12.20;99.90
42833;DHT22;64089;51.478;5.692;2022-10-16T03:02:37;12.20;99.90
42833;DHT22;64089;51.478;5.692;2022-10-16T03:05:03;12.20;99.90
42833;DHT22;64089;51.478;5.692;2022-10-16T03:07:29;12.10;99.90
42833;DHT22;64089;51.478;5.692;2022-10-16T03:09:55;12.10;99.90
42833;DHT22;64089;51.478;5.692;2022-10-16T03:12:21;12.10;99.90
42833;DHT22;64089;51.478;5.692;2022-10-16T03:14:46;12.10;99.90
42833;DHT22;64089;51.478;5.692;2022-10-16T03:17:12;12.10;99.90
42833;DHT22;64089;51.478;5.692;2022-10-16T03:19:41;12.20;99.90
42833;DHT22;64089;51.478;5.692;2022-10-16T03:22:07;12.20;99.90
42833;DHT22;64089;51.478;5.692;2022-10-16T03:24:32;12.20;99.90
42833;DHT22;64089;51.478;5.692;2022-10-16T03:26:58;12.20;99.90
42833;DHT22;64089;51.478;5.692;2022-10-16T03:29:23;12.20;99.90
42833;DHT22;64089;51.478;5.692;2022-10-16T03:31:51;12.20;99.90
42833;DHT22;64089;51.478;5.692;2022-10-16T03:34:16;12.20;99.90
42833;DHT22;64089;51.478;5.692;2022-10-16T03:36:42;12.20;99.90
42833;DHT22;64089;51.478;5.692;2022-10-16T03:39:07;12.20;99.90
42833;DHT22;64089;51.478;5.692;2022-10-16T03:41:33;12.20;99.90
42833;DHT22;64089;51.478;5.692;2022-10-16T03:43:58;12.20;99.90
42833;DHT22;64089;51.478;5.692;2022-10-16T03:46:24;12.20;99.90
42833;DHT22;64089;51.478;5.692;2022-10-16T03:48:50;12.20;99.90
42833;DHT22;64089;51.478;5.692;2022-10-16T03:51:15;12.30;99.90
42833;DHT22;64089;51.478;5.692;2022-10-16T03:53:41;12.20;99.90
42833;DHT22;64089;51.478;5.692;2022-10-16T03:56:06;12.30;99.90
42833;DHT22;64089;51.478;5.692;2022-10-16T03:58:32;12.20;99.90
42833;DHT22;64089;51.478;5.692;2022-10-16T04:00:58;12.20;99.90
42833;DHT22;64089;51.478;5.692;2022-10-16T04:03:23;12.20;99.90
42833;DHT22;64089;51.478;5.692;2022-10-16T04:05:49;12.20;99.90
42833;DHT22;64089;51.478;5.692;2022-10-16T04:08:15;12.30;99.90
42833;DHT22;64089;51.478;5.692;2022-10-16T04:10:42;12.30;99.90
42833;DHT22;64089;51.478;5.692;2022-10-16T04:13:08;12.20;99.90
42833;DHT22;64089;51.478;5.692;2022-10-16T04:15:34;12.30;99.90
42833;DHT22;64089;51.478;5.692;2022-10-16T04:18:00;12.30;99.90
42833;DHT22;64089;51.478;5.692;2022-10-16T04:20:25;12.30;99.90
42833;DHT22;64089;51.478;5.692;2022-10-16T04:22:51;12.30;99.90
42833;DHT22;64089;51.478;5.692;2022-10-16T04:25:17;12.30;99.90
42833;DHT22;64089;51.478;5.692;2022-10-16T04:27:42;12.30;99.90
42833;DHT22;64089;51.478;5.692;2022-10-16T04:30:08;12.40;99.90
42833;DHT22;64089;51.478;5.692;2022-10-16T04:32:34;12.40;99.90
42833;DHT22;64089;51.478;5.692;2022-10-16T04:34:59;12.50;99.90
42833;DHT22;64089;51.478;5.692;2022-10-16T04:37:26;12.50;99.90
42833;DHT22;64089;51.478;5.692;2022-10-16T04:39:52;12.40;99.90
42833;DHT22;64089;51.478;5.692;2022-10-16T04:42:18;12.40;99.90
42833;DHT22;64089;51.478;5.692;2022-10-16T04:44:43;12.40;99.90
42833;DHT22;64089;51.478;5.692;2022-10-16T04:47:09;12.50;99.90
42833;DHT22;64089;51.478;5.692;2022-10-16T04:49:35;12.40;99.90
42833;DHT22;64089;51.478;5.692;2022-10-16T04:52:00;12.50;99.90
42833;DHT22;64089;51.478;5.692;2022-10-16T04:54:26;12.40;99.90
42833;DHT22;64089;51.478;5.692;2022-10-16T04:56:52;12.40;99.90
42833;DHT22;64089;51.478;5.692;2022-10-16T04:59:19;12.40;99.90
42833;DHT22;64089;51.478;5.692;2022-10-16T05:01:44;12.30;99.90
42833;DHT22;64089;51.478;5.692;2022-10-16T05:04:11;12.30;99.90
42833;DHT22;64089;51.478;5.692;2022-10-16T05:06:37;12.40;99.90
42833;DHT22;64089;51.478;5.692;2022-10-16T05:09:07;12.40;99.90
42833;DHT22;64089;51.478;5.692;2022-10-16T05:11:33;12.40;99.90
42833;DHT22;64089;51.478;5.692;2022-10-16T05:13:59;12.40;99.90
42833;DHT22;64089;51.478;5.692;2022-10-16T05:16:25;12.40;99.90
42833;DHT22;64089;51.478;5.692;2022-10-16T05:18:53;12.30;99.90
42833;DHT22;64089;51.478;5.692;2022-10-16T05:21:20;12.30;99.90
42833;DHT22;64089;51.478;5.692;2022-10-16T05:23:45;12.30;99.90
42833;DHT22;64089;51.478;5.692;2022-10-16T05:26:11;12.30;99.90
42833;DHT22;64089;51.478;5.692;2022-10-16T05:28:37;12.40;99.90
42833;DHT22;64089;51.478;5.692;2022-10-16T05:31:09;12.30;99.90
42833;DHT22;64089;51.478;5.692;2022-10-16T05:33:35;12.40;99.90
42833;DHT22;64089;51.478;5.692;2022-10-16T05:36:06;12.40;99.90
42833;DHT22;64089;51.478;5.692;2022-10-16T05:38:36;12.30;99.90
42833;DHT22;64089;51.478;5.692;2022-10-16T05:41:03;12.30;99.90
42833;DHT22;64089;51.478;5.692;2022-10-16T05:43:29;12.20;99.90
42833;DHT22;64089;51.478;5.692;2022-10-16T05:45:56;12.20;99.90
42833;DHT22;64089;51.478;5.692;2022-10-16T05:48:23;12.20;99.90
42833;DHT22;64089;51.478;5.692;2022-10-16T05:50:55;12.20;99.90
42833;DHT22;64089;51.478;5.692;2022-10-16T05:53:21;12.20;99.90
42833;DHT22;64089;51.478;5.692;2022-10-16T05:55:54;12.20;99.90
42833;DHT22;64089;51.478;5.692;2022-10-16T05:58:20;12.20;99.90
42833;DHT22;64089;51.478;5.692;2022-10-16T06:00:57;12.20;99.90
42833;DHT22;64089;51.478;5.692;2022-10-16T06:03:23;12.20;99.90
42833;DHT22;64089;51.478;5.692;2022-10-16T06:05:49;12.20;99.90
42833;DHT22;64089;51.478;5.692;2022-10-16T06:08:14;12.20;99.90
42833;DHT22;64089;51.478;5.692;2022-10-16T06:10:40;12.20;99.90
42833;DHT22;64089;51.478;5.692;2022-10-16T06:13:05;12.20;99.90
42833;DHT22;64089;51.478;5.692;2022-10-16T06:15:31;12.20;99.90
42833;DHT22;64089;51.478;5.692;2022-10-16T06:17:57;12.10;99.90
42833;DHT22;64089;51.478;5.692;2022-10-16T06:20:22;12.20;99.90
42833;DHT22;64089;51.478;5.692;2022-10-16T06:22:48;12.20;99.90
42833;DHT22;64089;51.478;5.692;2022-10-16T06:25:13;12.20;99.90
42833;DHT22;64089;51.478;5.692;2022-10-16T06:27:40;12.20;99.90
42833;DHT22;64089;51.478;5.692;2022-10-16T06:30:06;12.20;99.90
42833;DHT22;64089;51.478;5.692;2022-10-16T06:32:32;12.10;99.90
42833;DHT22;64089;51.478;5.692;2022-10-16T06:34:58;12.20;99.90
42833;DHT22;64089;51.478;5.692;2022-10-16T06:37:23;12.20;99.90
42833;DHT22;64089;51.478;5.692;2022-10-16T06:39:50;12.20;99.90
42833;DHT22;64089;51.478;5.692;2022-10-16T06:42:17;12.20;99.90
42833;DHT22;64089;51.478;5.692;2022-10-16T06:44:43;12.20;99.90
42833;DHT22;64089;51.478;5.692;2022-10-16T06:47:09;12.20;99.90
42833;DHT22;64089;51.478;5.692;2022-10-16T06:49:35;12.30;99.90
42833;DHT22;64089;51.478;5.692;2022-10-16T06:52:00;12.20;99.90
42833;DHT22;64089;51.478;5.692;2022-10-16T06:54:27;12.20;99.90
42833;DHT22;64089;51.478;5.692;2022-10-16T06:56:52;12.30;99.90
42833;DHT22;64089;51.478;5.692;2022-10-16T06:59:22;12.40;99.90
42833;DHT22;64089;51.478;5.692;2022-10-16T07:01:50;12.40;99.90
42833;DHT22;64089;51.478;5.692;2022-10-16T07:04:16;12.50;99.90
42833;DHT22;64089;51.478;5.692;2022-10-16T07:06:41;12.60;99.90
42833;DHT22;64089;51.478;5.692;2022-10-16T07:09:09;12.70;99.90
42833;DHT22;64089;51.478;5.692;2022-10-16T07:11:37;12.70;99.90
42833;DHT22;64089;51.478;5.692;2022-10-16T07:14:03;12.70;99.90
42833;DHT22;64089;51.478;5.692;2022-10-16T07:16:31;12.80;99.90
42833;DHT22;64089;51.478;5.692;2022-10-16T07:18:59;12.80;99.90
42833;DHT22;64089;51.478;5.692;2022-10-16T07:21:31;12.90;99.90
42833;DHT22;64089;51.478;5.692;2022-10-16T07:24:00;12.90;99.90
42833;DHT22;64089;51.478;5.692;2022-10-16T07:26:27;13.00;99.90
42833;DHT22;64089;51.478;5.692;2022-10-16T07:28:53;13.10;99.90
42833;DHT22;64089;51.478;5.692;2022-10-16T07:31:20;13.10;99.90
42833;DHT22;64089;51.478;5.692;2022-10-16T07:33:47;13.10;99.90
42833;DHT22;64089;51.478;5.692;2022-10-16T07:36:14;13.20;99.90
42833;DHT22;64089;51.478;5.692;2022-10-16T07:38:40;13.20;99.90
42833;DHT22;64089;51.478;5.692;2022-10-16T07:41:07;13.30;99.90
42833;DHT22;64089;51.478;5.692;2022-10-16T07:43:33;13.30;99.90
42833;DHT22;64089;51.478;5.692;2022-10-16T07:45:59;13.40;99.90
42833;DHT22;64089;51.478;5.692;2022-10-16T07:48:28;13.50;99.90
42833;DHT22;64089;51.478;5.692;2022-10-16T07:50:58;13.50;99.90
42833;DHT22;64089;51.478;5.692;2022-10-16T07:53:24;13.80;99.90
42833;DHT22;64089;51.478;5.692;2022-10-16T07:55:50;13.80;99.90
42833;DHT22;64089;51.478;5.692;2022-10-16T07:58:15;13.80;99.90
42833;DHT22;64089;51.478;5.692;2022-10-16T08:00:41;13.90;99.90
42833;DHT22;64089;51.478;5.692;2022-10-16T08:03:08;14.00;99.90
42833;DHT22;64089;51.478;5.692;2022-10-16T08:05:33;14.10;99.90
42833;DHT22;64089;51.478;5.692;2022-10-16T08:08:00;14.10;99.90
42833;DHT22;64089;51.478;5.692;2022-10-16T08:10:27;14.20;99.90
42833;DHT22;64089;51.478;5.692;2022-10-16T08:12:53;14.20;99.90
42833;DHT22;64089;51.478;5.692;2022-10-16T08:15:19;14.20;99.90
42833;DHT22;64089;51.478;5.692;2022-10-16T08:17:53;14.20;99.90
42833;DHT22;64089;51.478;5.692;2022-10-16T08:20:19;14.30;99.90
42833;DHT22;64089;51.478;5.692;2022-10-16T08:22:44;14.30;99.90
42833;DHT22;64089;51.478;5.692;2022-10-16T08:25:10;14.50;99.90
42833;DHT22;64089;51.478;5.692;2022-10-16T08:27:35;14.60;99.90
42833;DHT22;64089;51.478;5.692;2022-10-16T08:30:01;14.70;99.90
42833;DHT22;64089;51.478;5.692;2022-10-16T08:32:27;14.70;99.90
42833;DHT22;64089;51.478;5.692;2022-10-16T08:34:52;14.70;99.90
42833;DHT22;64089;51.478;5.692;2022-10-16T08:37:18;14.70;99.90
42833;DHT22;64089;51.478;5.692;2022-10-16T08:39:43;14.70;99.90
42833;DHT22;64089;51.478;5.692;2022-10-16T08:42:19;14.80;99.90
42833;DHT22;64089;51.478;5.692;2022-10-16T08:47:25;14.80;99.90
42833;DHT22;64089;51.478;5.692;2022-10-16T08:50:08;14.90;99.90
42833;DHT22;64089;51.478;5.692;2022-10-16T08:52:35;15.00;99.90
42833;DHT22;64089;51.478;5.692;2022-10-16T08:55:04;15.00;99.90
42833;DHT22;64089;51.478;5.692;2022-10-16T08:57:30;15.00;99.90
42833;DHT22;64089;51.478;5.692;2022-10-16T09:00:00;14.90;99.90
42833;DHT22;64089;51.478;5.692;2022-10-16T09:02:43;15.00;99.90
42833;DHT22;64089;51.478;5.692;2022-10-16T09:05:44;15.10;99.90
42833;DHT22;64089;51.478;5.692;2022-10-16T09:10:55;15.20;99.90
42833;DHT22;64089;51.478;5.692;2022-10-16T09:16:27;15.40;99.90
42833;DHT22;64089;51.478;5.692;2022-10-16T09:19:15;15.40;99.90
42833;DHT22;64089;51.478;5.692;2022-10-16T09:21:44;15.40;99.90
42833;DHT22;64089;51.478;5.692;2022-10-16T09:26:42;15.50;99.90
42833;DHT22;64089;51.478;5.692;2022-10-16T09:29:18;15.50;99.90
42833;DHT22;64089;51.478;5.692;2022-10-16T09:31:48;15.60;99.90
42833;DHT22;64089;51.478;5.692;2022-10-16T09:34:35;15.70;99.90
42833;DHT22;64089;51.478;5.692;2022-10-16T09:37:05;15.70;99.90
42833;DHT22;64089;51.478;5.692;2022-10-16T09:44:51;15.90;99.90
42833;DHT22;64089;51.478;5.692;2022-10-16T09:47:22;16.10;99.90
42833;DHT22;64089;51.478;5.692;2022-10-16T09:50:04;16.20;99.90
42833;DHT22;64089;51.478;5.692;2022-10-16T09:52:32;16.30;99.90
42833;DHT22;64089;51.478;5.692;2022-10-16T09:55:00;16.40;99.90
42833;DHT22;64089;51.478;5.692;2022-10-16T09:57:27;16.50;99.90
42833;DHT22;64089;51.478;5.692;2022-10-16T09:59:57;16.70;99.90
42833;DHT22;64089;51.478;5.692;2022-10-16T10:02:29;16.70;99.90
42833;DHT22;64089;51.478;5.692;2022-10-16T10:04:56;16.60;99.90
42833;DHT22;64089;51.478;5.692;2022-10-16T10:07:30;16.70;99.90
42833;DHT22;64089;51.478;5.692;2022-10-16T10:10:01;16.60;99.90
42833;DHT22;64089;51.478;5.692;2022-10-16T10:12:28;16.60;99.90
42833;DHT22;64089;51.478;5.692;2022-10-16T10:15:03;16.60;99.90
42833;DHT22;64089;51.478;5.692;2022-10-16T10:17:29;16.60;99.90
42833;DHT22;64089;51.478;5.692;2022-10-16T10:20:00;16.70;99.90
42833;DHT22;64089;51.478;5.692;2022-10-16T10:22:41;17.10;99.90
42833;DHT22;64089;51.478;5.692;2022-10-16T10:27:39;17.30;99.90
42833;DHT22;64089;51.478;5.692;2022-10-16T10:33:19;17.10;99.90
42833;DHT22;64089;51.478;5.692;2022-10-16T10:36:10;17.10;99.90
42833;DHT22;64089;51.478;5.692;2022-10-16T10:39:01;17.40;99.90
42833;DHT22;64089;51.478;5.692;2022-10-16T10:50:02;18.00;99.90
42833;DHT22;64089;51.478;5.692;2022-10-16T10:52:58;18.10;99.90
42833;DHT22;64089;51.478;5.692;2022-10-16T10:55:46;18.00;99.90
42833;DHT22;64089;51.478;5.692;2022-10-16T10:58:40;17.90;99.90
42833;DHT22;64089;51.478;5.692;2022-10-16T11:01:16;17.80;99.90
42833;DHT22;64089;51.478;5.692;2022-10-16T11:06:46;17.50;99.90
42833;DHT22;64089;51.478;5.692;2022-10-16T11:09:23;17.60;99.90
42833;DHT22;64089;51.478;5.692;2022-10-16T11:11:58;17.60;99.90
42833;DHT22;64089;51.478;5.692;2022-10-16T11:14:35;17.70;99.90
42833;DHT22;64089;51.478;5.692;2022-10-16T11:27:39;17.90;99.90
42833;DHT22;64089;51.478;5.692;2022-10-16T11:30:14;18.20;99.90
42833;DHT22;64089;51.478;5.692;2022-10-16T11:36:04;18.60;99.90
42833;DHT22;64089;51.478;5.692;2022-10-16T11:49:31;18.50;99.90
42833;DHT22;64089;51.478;5.692;2022-10-16T11:52:07;18.40;99.90
42833;DHT22;64089;51.478;5.692;2022-10-16T11:54:59;18.20;99.90
42833;DHT22;64089;51.478;5.692;2022-10-16T11:57:39;18.50;99.90
42833;DHT22;64089;51.478;5.692;2022-10-16T12:00:09;18.80;99.90
42833;DHT22;64089;51.478;5.692;2022-10-16T12:08:15;19.70;99.90
42833;DHT22;64089;51.478;5.692;2022-10-16T12:10:44;19.80;99.90
42833;DHT22;64089;51.478;5.692;2022-10-16T12:13:33;19.70;99.90
42833;DHT22;64089;51.478;5.692;2022-10-16T12:18:38;20.10;99.90
42833;DHT22;64089;51.478;5.692;2022-10-16T12:21:04;20.10;99.90
42833;DHT22;64089;51.478;5.692;2022-10-16T12:23:32;20.10;99.90
42833;DHT22;64089;51.478;5.692;2022-10-16T12:26:00;20.00;99.90
42833;DHT22;64089;51.478;5.692;2022-10-16T12:28:29;20.20;99.90
42833;DHT22;64089;51.478;5.692;2022-10-16T12:30:59;20.10;99.90
42833;DHT22;64089;51.478;5.692;2022-10-16T12:36:00;20.00;99.90
42833;DHT22;64089;51.478;5.692;2022-10-16T12:38:26;19.90;99.90
42833;DHT22;64089;51.478;5.692;2022-10-16T12:41:08;19.70;99.90
42833;DHT22;64089;51.478;5.692;2022-10-16T12:43:42;19.40;99.90
42833;DHT22;64089;51.478;5.692;2022-10-16T12:48:34;18.50;99.90
42833;DHT22;64089;51.478;5.692;2022-10-16T12:54:03;18.30;99.90
42833;DHT22;64089;51.478;5.692;2022-10-16T18:37:20;15.20;99.90
42833;DHT22;64089;51.478;5.692;2022-10-16T18:39:46;15.10;99.90
42833;DHT22;64089;51.478;5.692;2022-10-16T18:42:14;14.90;99.90
42833;DHT22;64089;51.478;5.692;2022-10-16T18:44:39;14.80;99.90
42833;DHT22;64089;51.478;5.692;2022-10-16T18:47:05;14.90;99.90
42833;DHT22;64089;51.478;5.692;2022-10-16T18:49:30;14.90;99.90
42833;DHT22;64089;51.478;5.692;2022-10-16T18:51:56;15.10;99.90
42833;DHT22;64089;51.478;5.692;2022-10-16T18:54:23;15.20;99.90
42833;DHT22;64089;51.478;5.692;2022-10-16T18:56:51;15.10;99.90
42833;DHT22;64089;51.478;5.692;2022-10-16T18:59:17;15.10;99.90
42833;DHT22;64089;51.478;5.692;2022-10-16T19:01:43;15.00;99.90
42833;DHT22;64089;51.478;5.692;2022-10-16T19:04:10;14.90;99.90
42833;DHT22;64089;51.478;5.692;2022-10-16T19:06:38;14.80;99.90
42833;DHT22;64089;51.478;5.692;2022-10-16T19:09:05;14.70;99.90
42833;DHT22;64089;51.478;5.692;2022-10-16T19:11:31;14.80;99.90
42833;DHT22;64089;51.478;5.692;2022-10-16T19:13:57;14.70;99.90
42833;DHT22;64089;51.478;5.692;2022-10-16T19:16:28;14.60;99.90
42833;DHT22;64089;51.478;5.692;2022-10-16T19:18:56;14.50;99.90
42833;DHT22;64089;51.478;5.692;2022-10-16T19:21:23;14.60;99.90
42833;DHT22;64089;51.478;5.692;2022-10-16T19:23:57;14.60;99.90
42833;DHT22;64089;51.478;5.692;2022-10-16T19:26:24;14.60;99.90
42833;DHT22;64089;51.478;5.692;2022-10-16T19:28:49;14.60;99.90
42833;DHT22;64089;51.478;5.692;2022-10-16T19:31:19;14.60;99.90
42833;DHT22;64089;51.478;5.692;2022-10-16T19:33:45;14.60;99.90
42833;DHT22;64089;51.478;5.692;2022-10-16T19:36:17;14.60;99.90
42833;DHT22;64089;51.478;5.692;2022-10-16T19:38:44;14.60;99.90
42833;DHT22;64089;51.478;5.692;2022-10-16T19:41:13;14.60;99.90
42833;DHT22;64089;51.478;5.692;2022-10-16T19:43:39;14.60;99.90
42833;DHT22;64089;51.478;5.692;2022-10-16T19:46:11;14.60;99.90
42833;DHT22;64089;51.478;5.692;2022-10-16T19:48:37;14.60;99.90
42833;DHT22;64089;51.478;5.692;2022-10-16T19:51:04;14.60;99.90
42833;DHT22;64089;51.478;5.692;2022-10-16T19:53:31;14.60;99.90
42833;DHT22;64089;51.478;5.692;2022-10-16T19:55:56;14.70;99.90
42833;DHT22;64089;51.478;5.692;2022-10-16T19:58:23;14.60;99.90
42833;DHT22;64089;51.478;5.692;2022-10-16T20:00:48;14.70;99.90
42833;DHT22;64089;51.478;5.692;2022-10-16T20:03:15;14.70;99.90
42833;DHT22;64089;51.478;5.692;2022-10-16T20:05:52;14.60;99.90
42833;DHT22;64089;51.478;5.692;2022-10-16T20:08:18;14.60;99.90
42833;DHT22;64089;51.478;5.692;2022-10-16T20:10:51;14.60;99.90
42833;DHT22;64089;51.478;5.692;2022-10-16T20:13:17;14.70;99.90
42833;DHT22;64089;51.478;5.692;2022-10-16T20:15:44;14.70;99.90
42833;DHT22;64089;51.478;5.692;2022-10-16T20:18:09;14.70;99.90
42833;DHT22;64089;51.478;5.692;2022-10-16T20:20:39;14.70;99.90
42833;DHT22;64089;51.478;5.692;2022-10-16T20:23:05;14.70;99.90
42833;DHT22;64089;51.478;5.692;2022-10-16T20:25:35;14.60;99.90
42833;DHT22;64089;51.478;5.692;2022-10-16T20:28:01;14.60;99.90
42833;DHT22;64089;51.478;5.692;2022-10-16T20:30:27;14.60;99.90
42833;DHT22;64089;51.478;5.692;2022-10-16T20:32:52;14.60;99.90
42833;DHT22;64089;51.478;5.692;2022-10-16T20:35:20;14.50;99.90
42833;DHT22;64089;51.478;5.692;2022-10-16T20:37:45;14.40;99.90
42833;DHT22;64089;51.478;5.692;2022-10-16T20:40:13;14.40;99.90
42833;DHT22;64089;51.478;5.692;2022-10-16T20:42:39;14.30;99.90
42833;DHT22;64089;51.478;5.692;2022-10-16T20:45:05;14.30;99.90
42833;DHT22;64089;51.478;5.692;2022-10-16T20:47:31;14.20;99.90
42833;DHT22;64089;51.478;5.692;2022-10-16T20:49:57;14.20;99.90
42833;DHT22;64089;51.478;5.692;2022-10-16T20:52:23;14.20;99.90
42833;DHT22;64089;51.478;5.692;2022-10-16T20:54:49;14.10;99.90
42833;DHT22;64089;51.478;5.692;2022-10-16T20:57:15;14.10;99.90
42833;DHT22;64089;51.478;5.692;2022-10-16T20:59:40;14.00;99.90
42833;DHT22;64089;51.478;5.692;2022-10-16T21:02:06;14.10;99.90
42833;DHT22;64089;51.478;5.692;2022-10-16T21:04:32;14.00;99.90
42833;DHT22;64089;51.478;5.692;2022-10-16T21:06:58;14.00;99.90
42833;DHT22;64089;51.478;5.692;2022-10-16T21:09:23;14.00;99.90
42833;DHT22;64089;51.478;5.692;2022-10-16T21:11:49;13.90;99.90
42833;DHT22;64089;51.478;5.692;2022-10-16T21:14:15;13.80;99.90
42833;DHT22;64089;51.478;5.692;2022-10-16T21:16:41;13.80;99.90
42833;DHT22;64089;51.478;5.692;2022-10-16T21:19:07;13.80;99.90
42833;DHT22;64089;51.478;5.692;2022-10-16T21:21:35;13.80;99.90
42833;DHT22;64089;51.478;5.692;2022-10-16T21:24:01;13.80;99.90
42833;DHT22;64089;51.478;5.692;2022-10-16T21:26:27;13.70;99.90
42833;DHT22;64089;51.478;5.692;2022-10-16T21:28:56;13.70;99.90
42833;DHT22;64089;51.478;5.692;2022-10-16T21:31:22;13.70;99.90
42833;DHT22;64089;51.478;5.692;2022-10-16T21:33:47;13.70;99.90
42833;DHT22;64089;51.478;5.692;2022-10-16T21:36:20;13.70;99.90
42833;DHT22;64089;51.478;5.692;2022-10-16T21:38:46;13.60;99.90
42833;DHT22;64089;51.478;5.692;2022-10-16T21:41:18;13.70;99.90
42833;DHT22;64089;51.478;5.692;2022-10-16T21:43:44;13.60;99.90
42833;DHT22;64089;51.478;5.692;2022-10-16T21:46:11;13.70;99.90
42833;DHT22;64089;51.478;5.692;2022-10-16T21:48:37;13.60;99.90
42833;DHT22;64089;51.478;5.692;2022-10-16T21:51:04;13.60;99.90
42833;DHT22;64089;51.478;5.692;2022-10-16T21:53:30;13.60;99.90
42833;DHT22;64089;51.478;5.692;2022-10-16T21:55:56;13.60;99.90
42833;DHT22;64089;51.478;5.692;2022-10-16T21:58:21;13.60;99.90
42833;DHT22;64089;51.478;5.692;2022-10-16T22:00:47;13.70;99.90
42833;DHT22;64089;51.478;5.692;2022-10-16T22:03:12;13.70;99.90
42833;DHT22;64089;51.478;5.692;2022-10-16T22:05:38;13.80;99.90
42833;DHT22;64089;51.478;5.692;2022-10-16T22:08:04;13.80;99.90
42833;DHT22;64089;51.478;5.692;2022-10-16T22:10:30;13.90;99.90
42833;DHT22;64089;51.478;5.692;2022-10-16T22:12:56;13.90;99.90
42833;DHT22;64089;51.478;5.692;2022-10-16T22:15:21;14.00;99.90
42833;DHT22;64089;51.478;5.692;2022-10-16T22:17:47;14.00;99.90
42833;DHT22;64089;51.478;5.692;2022-10-16T22:20:12;14.10;99.90
42833;DHT22;64089;51.478;5.692;2022-10-16T22:22:38;14.00;99.90
42833;DHT22;64089;51.478;5.692;2022-10-16T22:25:04;14.10;99.90
42833;DHT22;64089;51.478;5.692;2022-10-16T22:27:29;14.10;99.90
42833;DHT22;64089;51.478;5.692;2022-10-16T22:29:55;14.20;99.90
42833;DHT22;64089;51.478;5.692;2022-10-16T22:32:20;14.10;99.90
42833;DHT22;64089;51.478;5.692;2022-10-16T22:34:46;14.20;99.90
42833;DHT22;64089;51.478;5.692;2022-10-16T22:37:11;14.20;99.90
42833;DHT22;64089;51.478;5.692;2022-10-16T22:39:37;14.20;99.90
42833;DHT22;64089;51.478;5.692;2022-10-16T22:42:03;14.20;99.90
42833;DHT22;64089;51.478;5.692;2022-10-16T22:44:29;14.10;99.90
42833;DHT22;64089;51.478;5.692;2022-10-16T22:46:55;14.20;99.90
42833;DHT22;64089;51.478;5.692;2022-10-16T22:49:21;14.10;99.90